Time;durP1;ratioP1;P1;durP2;ratioP2;P2;SDS_P1;SDS_P2;PMS_P1;PMS_P2;Temp;Humidity;BMP_temperature;BMP_pressure;BME280_temperature;BME280_humidity;BME280_pressure;Samples;Min_cycle;Max_cycle;Signal;HPM_P1;HPM_P2
2022/07/15 00:00:44;;;;;;;6.63;3.00;;;;;;;;;;5054266;28;20570;-65
2022/07/15 00:03:10;;;;;;;10.13;2.83;;;;;;;;;;5054504;28;20175;-62
2022/07/15 00:05:36;;;;;;;5.73;2.80;;;;;;;;;;5054054;28;20678;-63
2022/07/15 00:08:02;;;;;;;5.87;2.43;;;;;;;;;;5053982;28;20190;-64
2022/07/15 00:10:28;;;;;;;3.60;2.43;;;;;;;;;;5053991;28;20174;-63
2022/07/15 00:12:56;;;;;;;5.67;2.50;;;;;;;;;;5054003;28;20192;-63
2022/07/15 00:15:23;;;;;;;2.93;2.63;;;;;;;;;;5036056;28;20182;-63
2022/07/15 00:17:50;;;;;;;4.80;2.43;;;;;;;;;;5054056;28;20225;-63
2022/07/15 00:20:17;;;;;;;3.83;2.43;;;;;;;;;;5036525;28;20191;-65
2022/07/15 00:22:44;;;;;;;3.47;2.40;;;;;;;;;;5054579;28;20183;-63
2022/07/15 00:25:11;;;;;;;4.37;2.33;;;;;;;;;;5054558;28;20565;-63
2022/07/15 00:27:50;;;;;;;4.83;2.90;;;;;;;;;;5054485;28;20194;-64
2022/07/15 00:30:16;;;;;;;10.07;3.40;;;;;;;;;;5054409;28;20163;-64
2022/07/15 00:32:42;;;;;;;5.37;2.80;;;;;;;;;;5053681;28;20181;-64
2022/07/15 00:35:08;;;;;;;4.57;2.60;;;;;;;;;;5053536;28;20552;-63
2022/07/15 00:37:34;;;;;;;9.07;2.77;;;;;;;;;;5053556;28;20198;-64
2022/07/15 00:40:00;;;;;;;7.27;2.80;;;;;;;;;;5053541;28;20249;-66
2022/07/15 00:42:44;;;;;;;4.50;2.73;;;;;;;;;;5053936;28;20178;-65
2022/07/15 00:45:21;;;;;;;5.73;2.47;;;;;;;;;;5053400;28;20194;-65
2022/07/15 00:47:48;;;;;;;7.27;2.93;;;;;;;;;;5053300;28;20205;-63
2022/07/15 00:50:14;;;;;;;5.43;2.57;;;;;;;;;;5053343;28;20634;-63
2022/07/15 00:52:42;;;;;;;5.27;2.13;;;;;;;;;;5035394;28;20185;-64
2022/07/15 00:55:09;;;;;;;9.37;3.37;;;;;;;;;;5053167;28;20529;-64
2022/07/15 00:57:37;;;;;;;4.97;2.67;;;;;;;;;;5035349;28;20202;-63
2022/07/15 01:00:04;;;;;;;5.50;3.27;;;;;;;;;;5053477;28;20220;-66
2022/07/15 01:02:30;;;;;;;4.03;2.50;;;;;;;;;;5053085;28;20181;-66
2022/07/15 01:04:57;;;;;;;7.37;2.43;;;;;;;;;;5052986;28;20285;-66
2022/07/15 01:07:23;;;;;;;3.00;2.37;;;;;;;;;;5053052;28;20205;-65
2022/07/15 01:09:49;;;;;;;5.73;2.30;;;;;;;;;;5053304;28;20171;-66
2022/07/15 01:12:15;;;;;;;7.30;2.73;;;;;;;;;;5053273;28;20198;-66
2022/07/15 01:14:41;;;;;;;7.30;2.73;;;;;;;;;;5052958;28;20562;-66
2022/07/15 01:17:10;;;;;;;7.33;2.57;;;;;;;;;;5052785;28;20229;-64
2022/07/15 01:19:36;;;;;;;8.80;2.57;;;;;;;;;;5053189;28;20179;-63
2022/07/15 01:22:02;;;;;;;7.17;2.43;;;;;;;;;;5035042;28;20185;-64
2022/07/15 01:24:28;;;;;;;4.77;2.03;;;;;;;;;;5053055;28;20280;-63
2022/07/15 01:26:54;;;;;;;5.90;2.90;;;;;;;;;;5052777;28;20225;-63
2022/07/15 01:29:20;;;;;;;7.83;2.50;;;;;;;;;;5052849;28;20175;-63
2022/07/15 01:31:46;;;;;;;9.73;3.20;;;;;;;;;;5053029;28;20634;-63
2022/07/15 01:34:12;;;;;;;6.00;2.70;;;;;;;;;;5052828;28;20189;-63
2022/07/15 01:36:38;;;;;;;6.97;2.77;;;;;;;;;;5057172;28;20585;-64
2022/07/15 01:39:04;;;;;;;5.23;2.80;;;;;;;;;;5057173;28;20255;-64
2022/07/15 01:41:29;;;;;;;8.03;2.80;;;;;;;;;;5039021;28;20189;-63
2022/07/15 01:43:55;;;;;;;5.97;2.97;;;;;;;;;;5038990;28;20257;-63
2022/07/15 01:46:21;;;;;;;8.20;2.80;;;;;;;;;;5056988;28;20201;-63
2022/07/15 01:51:32;;;;;;;4.20;2.90;;;;;;;;;;5056878;28;20642;-63
2022/07/15 01:53:58;;;;;;;4.30;2.73;;;;;;;;;;5056663;28;20170;-64
2022/07/15 01:56:24;;;;;;;8.43;3.47;;;;;;;;;;5056558;28;20635;-63
2022/07/15 01:58:50;;;;;;;5.57;3.13;;;;;;;;;;5056527;28;20210;-63
2022/07/15 02:01:17;;;;;;;6.30;3.10;;;;;;;;;;5056654;28;20179;-63
2022/07/15 02:03:44;;;;;;;5.70;3.33;;;;;;;;;;5056532;28;20305;-63
2022/07/15 02:06:10;;;;;;;4.57;3.17;;;;;;;;;;5056817;28;20288;-63
2022/07/15 02:08:36;;;;;;;4.23;3.10;;;;;;;;;;5056288;28;20198;-63
2022/07/15 02:11:02;;;;;;;8.23;3.20;;;;;;;;;;5038456;28;20232;-63
2022/07/15 02:13:28;;;;;;;7.70;2.90;;;;;;;;;;5056349;28;20614;-64
2022/07/15 02:15:54;;;;;;;5.90;3.50;;;;;;;;;;5038372;28;20186;-63
2022/07/15 02:18:21;;;;;;;6.37;2.90;;;;;;;;;;5038152;28;20233;-62
2022/07/15 02:20:47;;;;;;;5.47;2.80;;;;;;;;;;5056083;28;20270;-63
2022/07/15 02:23:13;;;;;;;8.90;2.90;;;;;;;;;;5056318;28;20178;-64
2022/07/15 02:25:39;;;;;;;4.07;2.70;;;;;;;;;;5055914;28;20202;-63
2022/07/15 02:28:05;;;;;;;6.70;2.97;;;;;;;;;;5055940;28;20206;-63
2022/07/15 02:30:33;;;;;;;5.20;3.10;;;;;;;;;;5055995;28;20174;-63
2022/07/15 02:32:59;;;;;;;5.67;3.07;;;;;;;;;;5038012;28;20178;-63
2022/07/15 02:35:26;;;;;;;5.43;3.10;;;;;;;;;;5055822;28;20262;-63
2022/07/15 02:37:52;;;;;;;4.67;3.27;;;;;;;;;;5037871;28;20228;-63
2022/07/15 02:40:18;;;;;;;6.83;3.17;;;;;;;;;;5056154;28;20630;-63
2022/07/15 02:42:51;;;;;;;6.20;2.83;;;;;;;;;;5055740;28;20182;-63
2022/07/15 02:45:18;;;;;;;5.43;2.87;;;;;;;;;;5055818;28;20296;-63
2022/07/15 02:47:43;;;;;;;4.87;2.87;;;;;;;;;;5036493;28;20264;-63
2022/07/15 02:50:10;;;;;;;5.37;2.97;;;;;;;;;;5055903;28;20704;-63
2022/07/15 02:52:35;;;;;;;7.10;3.27;;;;;;;;;;5055742;28;20642;-64
2022/07/15 02:55:02;;;;;;;7.90;3.30;;;;;;;;;;5055816;28;20182;-64
2022/07/15 02:57:28;;;;;;;8.27;3.37;;;;;;;;;;5037694;28;20229;-63
2022/07/15 02:59:54;;;;;;;8.30;3.40;;;;;;;;;;5056037;28;20597;-62
2022/07/15 03:02:20;;;;;;;5.17;3.17;;;;;;;;;;5056145;28;20189;-63
2022/07/15 03:04:47;;;;;;;7.27;3.73;;;;;;;;;;5055505;28;20202;-62
2022/07/15 03:07:13;;;;;;;5.17;3.20;;;;;;;;;;5055624;28;20194;-63
2022/07/15 03:09:39;;;;;;;9.00;3.50;;;;;;;;;;5037684;28;20186;-63
2022/07/15 03:12:05;;;;;;;7.87;3.70;;;;;;;;;;5037379;28;20175;-63
2022/07/15 03:14:31;;;;;;;6.67;3.47;;;;;;;;;;5055513;28;20182;-63
2022/07/15 03:16:57;;;;;;;7.23;3.20;;;;;;;;;;5055269;28;20567;-63
2022/07/15 03:19:23;;;;;;;6.27;3.47;;;;;;;;;;5055416;28;20182;-63
2022/07/15 03:21:49;;;;;;;5.87;3.27;;;;;;;;;;5037229;28;20666;-63
2022/07/15 03:24:15;;;;;;;8.53;3.50;;;;;;;;;;5037105;28;20239;-63
2022/07/15 03:26:41;;;;;;;7.00;3.30;;;;;;;;;;5037173;28;20285;-63
2022/07/15 03:29:08;;;;;;;5.60;3.23;;;;;;;;;;5037186;28;20251;-63
2022/07/15 03:31:34;;;;;;;4.27;3.27;;;;;;;;;;5054919;28;20678;-63
2022/07/15 03:34:00;;;;;;;6.73;3.27;;;;;;;;;;5036946;28;20220;-63
2022/07/15 03:36:25;;;;;;;5.43;2.93;;;;;;;;;;5054767;28;20182;-63
2022/07/15 03:38:52;;;;;;;7.60;3.57;;;;;;;;;;5054809;28;20269;-63
2022/07/15 03:41:18;;;;;;;6.80;3.60;;;;;;;;;;5054716;28;20190;-63
2022/07/15 03:43:44;;;;;;;5.57;3.20;;;;;;;;;;5054625;28;20187;-63
2022/07/15 03:46:10;;;;;;;7.27;3.10;;;;;;;;;;5054473;28;20281;-62
2022/07/15 03:48:36;;;;;;;5.63;3.10;;;;;;;;;;5036541;28;20677;-63
2022/07/15 03:51:02;;;;;;;9.57;3.20;;;;;;;;;;5036579;28;20600;-63
2022/07/15 03:53:28;;;;;;;4.63;3.40;;;;;;;;;;5036388;28;20178;-63
2022/07/15 03:55:54;;;;;;;6.70;3.27;;;;;;;;;;5036414;28;20182;-63
2022/07/15 03:58:20;;;;;;;4.10;2.93;;;;;;;;;;5053809;28;20197;-63
2022/07/15 04:00:46;;;;;;;6.03;3.37;;;;;;;;;;5054522;28;20283;-63
2022/07/15 04:03:12;;;;;;;11.97;3.60;;;;;;;;;;5054421;28;20524;-63
2022/07/15 04:05:41;;;;;;;8.53;4.00;;;;;;;;;;5036121;28;20245;-64
2022/07/15 04:08:07;;;;;;;5.97;3.23;;;;;;;;;;5054083;28;20198;-62
2022/07/15 04:10:33;;;;;;;8.20;3.57;;;;;;;;;;5036435;28;20197;-63
2022/07/15 04:12:59;;;;;;;6.73;3.50;;;;;;;;;;5054055;28;20174;-63
2022/07/15 04:15:25;;;;;;;5.93;3.27;;;;;;;;;;5054371;28;20550;-63
2022/07/15 04:17:51;;;;;;;7.97;3.87;;;;;;;;;;5053798;28;20217;-63
2022/07/15 04:20:16;;;;;;;7.73;4.20;;;;;;;;;;5054132;28;20179;-63
2022/07/15 04:22:43;;;;;;;6.23;3.60;;;;;;;;;;5035952;28;20222;-63
2022/07/15 04:25:11;;;;;;;6.37;4.67;;;;;;;;;;5053994;28;20263;-65
2022/07/15 04:27:37;;;;;;;7.57;3.80;;;;;;;;;;5053747;28;20662;-63
2022/07/15 04:30:05;;;;;;;9.30;4.57;;;;;;;;;;5035776;28;20198;-63
2022/07/15 04:32:31;;;;;;;10.10;5.00;;;;;;;;;;5053568;28;20225;-63
2022/07/15 04:34:56;;;;;;;10.20;4.93;;;;;;;;;;5053636;28;20190;-63
2022/07/15 04:37:22;;;;;;;9.10;4.07;;;;;;;;;;5053814;28;20570;-63
2022/07/15 04:39:48;;;;;;;8.53;4.00;;;;;;;;;;5053524;28;20183;-63
2022/07/15 04:42:14;;;;;;;9.00;3.83;;;;;;;;;;5035541;28;20183;-63
2022/07/15 04:44:40;;;;;;;10.90;4.73;;;;;;;;;;5053311;28;20666;-62
2022/07/15 04:47:06;;;;;;;7.60;4.23;;;;;;;;;;5053335;28;20251;-63
2022/07/15 04:52:17;;;;;;;6.97;4.00;;;;;;;;;;5053828;28;20607;-63
2022/07/15 04:54:43;;;;;;;7.90;3.73;;;;;;;;;;5053363;28;20179;-63
2022/07/15 04:57:11;;;;;;;7.53;3.90;;;;;;;;;;5053218;28;20558;-64
2022/07/15 04:59:37;;;;;;;5.10;3.33;;;;;;;;;;5035395;28;20657;-63
2022/07/15 05:02:03;;;;;;;5.70;3.07;;;;;;;;;;5053502;28;20179;-64
2022/07/15 05:04:29;;;;;;;10.30;3.50;;;;;;;;;;5035281;28;20646;-64
2022/07/15 05:06:56;;;;;;;7.40;3.10;;;;;;;;;;5035156;28;20198;-64
2022/07/15 05:09:22;;;;;;;7.50;2.93;;;;;;;;;;5034476;28;20253;-63
2022/07/15 05:11:48;;;;;;;7.57;2.97;;;;;;;;;;5052957;28;20210;-63
2022/07/15 05:14:14;;;;;;;6.17;2.47;;;;;;;;;;5035033;28;20241;-63
2022/07/15 05:16:40;;;;;;;8.10;2.67;;;;;;;;;;5053088;28;20238;-66
2022/07/15 05:19:06;;;;;;;10.40;2.90;;;;;;;;;;5053239;28;20201;-66
2022/07/15 05:21:32;;;;;;;5.27;2.83;;;;;;;;;;5052959;28;20631;-66
2022/07/15 05:23:58;;;;;;;6.90;2.37;;;;;;;;;;5034998;28;20178;-66
2022/07/15 05:26:24;;;;;;;5.57;2.60;;;;;;;;;;5034821;28;20631;-66
2022/07/15 05:28:50;;;;;;;2.50;2.10;;;;;;;;;;5053102;28;20582;-66
2022/07/15 05:31:16;;;;;;;7.63;2.67;;;;;;;;;;5053355;28;20178;-66
2022/07/15 05:33:42;;;;;;;5.73;2.77;;;;;;;;;;5052808;28;20171;-66
2022/07/15 05:36:12;;;;;;;6.50;3.10;;;;;;;;;;5034931;28;20179;-66
2022/07/15 05:38:38;;;;;;;5.53;2.67;;;;;;;;;;5052728;28;20190;-66
2022/07/15 05:41:04;;;;;;;6.90;2.47;;;;;;;;;;5034911;28;20182;-65
2022/07/15 05:43:30;;;;;;;2.70;2.20;;;;;;;;;;5035027;28;20553;-65
2022/07/15 05:45:56;;;;;;;8.33;2.57;;;;;;;;;;5052740;28;20208;-64
2022/07/15 05:48:22;;;;;;;7.03;2.40;;;;;;;;;;5052712;28;20205;-64
2022/07/15 05:50:49;;;;;;;5.03;2.70;;;;;;;;;;5052863;28;20174;-64
2022/07/15 05:53:15;;;;;;;5.27;2.67;;;;;;;;;;5034838;28;20193;-64
2022/07/15 05:55:41;;;;;;;5.47;2.40;;;;;;;;;;5052754;28;20663;-64
2022/07/15 05:58:08;;;;;;;4.63;2.40;;;;;;;;;;5034733;28;20792;-64
2022/07/15 06:00:34;;;;;;;4.63;2.20;;;;;;;;;;5052546;28;20182;-64
2022/07/15 06:03:00;;;;;;;6.70;2.40;;;;;;;;;;5052927;28;20635;-66
2022/07/15 06:05:26;;;;;;;8.67;2.40;;;;;;;;;;5053030;28;20202;-66
2022/07/15 06:07:52;;;;;;;6.93;2.60;;;;;;;;;;5052516;28;20606;-66
2022/07/15 06:10:18;;;;;;;6.80;2.10;;;;;;;;;;5034646;28;20273;-66
2022/07/15 06:12:44;;;;;;;5.93;2.00;;;;;;;;;;5034667;28;20549;-66
2022/07/15 06:15:10;;;;;;;5.77;1.87;;;;;;;;;;5052909;28;20546;-67
2022/07/15 06:17:36;;;;;;;8.23;2.80;;;;;;;;;;5052402;28;20260;-66
2022/07/15 06:20:02;;;;;;;2.83;1.53;;;;;;;;;;5052956;28;20189;-66
2022/07/15 06:22:28;;;;;;;3.93;2.27;;;;;;;;;;5037979;28;20186;-66
2022/07/15 06:24:54;;;;;;;7.63;2.50;;;;;;;;;;5056245;28;20197;-64
2022/07/15 06:27:21;;;;;;;6.63;2.07;;;;;;;;;;5038106;28;20284;-64
2022/07/15 06:29:47;;;;;;;4.97;2.00;;;;;;;;;;5056251;28;20185;-64
2022/07/15 06:32:13;;;;;;;8.43;1.77;;;;;;;;;;5055949;28;20182;-64
2022/07/15 06:34:39;;;;;;;8.57;2.23;;;;;;;;;;5056633;28;20278;-62
2022/07/15 06:37:05;;;;;;;4.90;1.80;;;;;;;;;;5037900;28;20213;-64
2022/07/15 06:39:31;;;;;;;5.37;2.27;;;;;;;;;;5055788;28;20241;-64
2022/07/15 06:41:57;;;;;;;2.77;1.73;;;;;;;;;;5055695;28;20178;-61
2022/07/15 06:44:23;;;;;;;6.13;1.87;;;;;;;;;;5055915;28;20231;-61
2022/07/15 06:46:49;;;;;;;6.73;2.13;;;;;;;;;;5055931;28;20202;-64
2022/07/15 06:49:15;;;;;;;7.80;2.20;;;;;;;;;;5055611;28;20170;-64
2022/07/15 06:51:41;;;;;;;5.17;1.97;;;;;;;;;;5055613;28;20182;-64
2022/07/15 06:54:08;;;;;;;5.97;2.07;;;;;;;;;;5055579;28;20225;-61
2022/07/15 06:56:34;;;;;;;5.60;2.20;;;;;;;;;;5055511;28;20210;-61
2022/07/15 06:59:00;;;;;;;4.53;1.97;;;;;;;;;;5055682;28;20202;-63
2022/07/15 07:01:26;;;;;;;5.17;2.20;;;;;;;;;;5037486;28;20217;-62
2022/07/15 07:03:52;;;;;;;5.57;2.10;;;;;;;;;;5055401;28;20673;-63
2022/07/15 07:06:18;;;;;;;6.33;1.50;;;;;;;;;;5055609;28;20206;-62
2022/07/15 07:08:46;;;;;;;4.50;1.63;;;;;;;;;;5037342;28;20183;-62
2022/07/15 07:11:12;;;;;;;5.67;1.60;;;;;;;;;;5055617;28;20174;-62
2022/07/15 07:13:38;;;;;;;7.37;2.27;;;;;;;;;;5037353;28;20186;-63
2022/07/15 07:16:04;;;;;;;5.53;1.80;;;;;;;;;;5037299;28;20186;-62
2022/07/15 07:18:31;;;;;;;3.93;1.70;;;;;;;;;;5054948;28;20214;-62
2022/07/15 07:20:57;;;;;;;4.80;1.90;;;;;;;;;;5055073;28;20558;-62
2022/07/15 07:23:26;;;;;;;4.10;1.57;;;;;;;;;;5055325;28;20195;-62
2022/07/15 07:25:52;;;;;;;4.20;1.77;;;;;;;;;;5054939;28;20248;-62
2022/07/15 07:28:18;;;;;;;2.50;1.53;;;;;;;;;;5054810;28;20194;-62
2022/07/15 07:30:45;;;;;;;4.93;1.97;;;;;;;;;;5037054;28;20186;-63
2022/07/15 07:33:11;;;;;;;6.10;2.00;;;;;;;;;;5054082;28;20181;-63
2022/07/15 07:35:37;;;;;;;4.77;1.87;;;;;;;;;;5055371;28;20182;-63
2022/07/15 07:38:03;;;;;;;2.90;1.50;;;;;;;;;;5054889;28;20194;-63
2022/07/15 07:40:29;;;;;;;5.77;2.03;;;;;;;;;;5054644;28;20189;-61
2022/07/15 07:42:56;;;;;;;4.10;1.50;;;;;;;;;;5054723;28;20182;-63
2022/07/15 07:45:22;;;;;;;3.63;1.80;;;;;;;;;;5054629;28;20228;-64
2022/07/15 07:47:48;;;;;;;2.83;1.60;;;;;;;;;;5054795;28;20198;-63
2022/07/15 07:50:14;;;;;;;3.20;1.50;;;;;;;;;;5054998;28;20692;-63
2022/07/15 07:52:41;;;;;;;6.07;1.50;;;;;;;;;;5036425;28;20217;-63
2022/07/15 07:55:08;;;;;;;6.93;1.50;;;;;;;;;;5036561;28;20188;-63
2022/07/15 07:57:34;;;;;;;3.17;1.83;;;;;;;;;;5054357;28;20203;-63
2022/07/15 08:00:00;;;;;;;4.57;1.30;;;;;;;;;;5054480;28;20197;-62
2022/07/15 08:02:25;;;;;;;1.43;1.30;;;;;;;;;;5054852;28;20674;-64
2022/07/15 08:04:52;;;;;;;5.30;1.50;;;;;;;;;;5054358;28;20206;-63
2022/07/15 08:07:18;;;;;;;4.87;1.73;;;;;;;;;;5054226;28;20198;-63
2022/07/15 08:09:43;;;;;;;3.07;1.90;;;;;;;;;;5036386;28;20293;-63
2022/07/15 08:12:09;;;;;;;5.20;1.83;;;;;;;;;;5036359;28;20617;-63
2022/07/15 08:14:35;;;;;;;4.47;1.60;;;;;;;;;;5054848;28;20643;-63
2022/07/15 08:17:01;;;;;;;6.43;1.80;;;;;;;;;;5054410;28;20632;-63
2022/07/15 08:19:27;;;;;;;10.57;1.70;;;;;;;;;;5037302;28;20197;-63
2022/07/15 08:21:53;;;;;;;4.67;1.60;;;;;;;;;;5053981;28;20635;-63
2022/07/15 08:24:19;;;;;;;4.57;1.37;;;;;;;;;;5053810;28;20647;-63
2022/07/15 08:26:45;;;;;;;2.67;1.63;;;;;;;;;;5035958;28;20214;-63
2022/07/15 08:29:11;;;;;;;3.07;1.70;;;;;;;;;;5053890;28;20256;-63
2022/07/15 08:31:37;;;;;;;6.03;1.90;;;;;;;;;;5053914;28;20182;-63
2022/07/15 08:34:04;;;;;;;7.33;2.10;;;;;;;;;;5054029;28;20308;-63
2022/07/15 08:36:30;;;;;;;5.50;1.60;;;;;;;;;;5053629;28;20189;-63
2022/07/15 08:38:56;;;;;;;2.47;1.47;;;;;;;;;;5053870;28;20175;-63
2022/07/15 08:41:22;;;;;;;5.40;1.80;;;;;;;;;;5053759;28;20240;-63
2022/07/15 08:43:48;;;;;;;4.93;1.87;;;;;;;;;;5053510;28;20175;-63
2022/07/15 08:46:16;;;;;;;4.20;1.53;;;;;;;;;;5053377;28;20263;-62
2022/07/15 08:48:46;;;;;;;3.40;1.40;;;;;;;;;;5035495;28;20642;-62
2022/07/15 08:51:12;;;;;;;4.33;1.23;;;;;;;;;;5069401;22;20225;-65
2022/07/15 08:53:38;;;;;;;4.60;2.07;;;;;;;;;;5053754;28;20220;-65
2022/07/15 08:56:04;;;;;;;3.13;1.47;;;;;;;;;;5053540;28;20175;-66
2022/07/15 08:58:32;;;;;;;3.37;1.57;;;;;;;;;;5053386;28;20182;-66
2022/07/15 09:00:59;;;;;;;3.50;1.67;;;;;;;;;;5035300;28;20227;-68
2022/07/15 09:03:24;;;;;;;1.83;1.30;;;;;;;;;;5053517;28;20202;-67
2022/07/15 09:05:50;;;;;;;3.23;1.63;;;;;;;;;;5035243;28;20253;-66
2022/07/15 09:08:19;;;;;;;2.33;1.60;;;;;;;;;;5053117;28;20174;-66
2022/07/15 09:10:48;;;;;;;2.67;1.53;;;;;;;;;;5035296;28;20182;-66
2022/07/15 09:13:30;;;;;;;2.43;1.53;;;;;;;;;;5053364;28;20186;-67
2022/07/15 09:15:56;;;;;;;3.30;1.67;;;;;;;;;;5035188;28;20265;-66
2022/07/15 09:18:23;;;;;;;1.70;1.60;;;;;;;;;;5035186;28;20178;-66
2022/07/15 09:20:50;;;;;;;4.20;1.20;;;;;;;;;;5052853;28;20182;-66
2022/07/15 09:23:20;;;;;;;2.70;1.73;;;;;;;;;;5052892;28;20665;-66
2022/07/15 09:25:47;;;;;;;2.13;1.57;;;;;;;;;;5053122;28;20254;-66
2022/07/15 09:28:13;;;;;;;5.73;1.60;;;;;;;;;;5052795;28;20174;-66
2022/07/15 09:33:38;;;;;;;2.80;1.63;;;;;;;;;;5053246;28;20178;-65
2022/07/15 09:36:21;;;;;;;4.77;1.60;;;;;;;;;;5053145;28;20173;-66
2022/07/15 09:38:47;;;;;;;6.20;1.70;;;;;;;;;;5053157;28;20170;-66
2022/07/15 09:41:32;;;;;;;2.17;1.43;;;;;;;;;;5052991;28;20201;-65
2022/07/15 09:44:01;;;;;;;4.20;1.70;;;;;;;;;;5034961;28;20709;-66
2022/07/15 09:46:41;;;;;;;4.23;1.30;;;;;;;;;;5052758;28;20198;-66
2022/07/15 09:49:07;;;;;;;6.67;1.60;;;;;;;;;;5034587;28;20177;-66
2022/07/15 09:51:43;;;;;;;2.87;1.70;;;;;;;;;;5052354;28;20229;-66
2022/07/15 09:54:11;;;;;;;4.07;1.40;;;;;;;;;;5052873;28;20170;-66
2022/07/15 09:56:37;;;;;;;2.87;1.20;;;;;;;;;;5054966;28;20167;-66
2022/07/15 09:59:03;;;;;;;2.37;1.60;;;;;;;;;;5056812;28;20635;-66
2022/07/15 10:01:29;;;;;;;4.00;1.40;;;;;;;;;;5056627;28;20252;-66
2022/07/15 10:03:55;;;;;;;4.77;1.20;;;;;;;;;;5038551;28;20174;-66
2022/07/15 10:06:21;;;;;;;3.33;1.33;;;;;;;;;;5056588;28;20210;-66
2022/07/15 10:08:48;;;;;;;2.20;1.33;;;;;;;;;;5056427;28;20185;-66
2022/07/15 10:11:14;;;;;;;2.70;1.47;;;;;;;;;;5056336;28;20240;-66
2022/07/15 10:13:44;;;;;;;1.20;1.10;;;;;;;;;;5056440;28;20639;-66
2022/07/15 10:16:16;;;;;;;1.60;1.03;;;;;;;;;;5056516;28;20167;-66
2022/07/15 10:19:01;;;;;;;2.17;1.30;;;;;;;;;;5038455;28;20555;-66
2022/07/15 10:21:36;;;;;;;2.83;1.97;;;;;;;;;;5056224;28;20229;-66
2022/07/15 10:24:21;;;;;;;2.53;1.37;;;;;;;;;;5056543;28;20159;-66
2022/07/15 10:27:06;;;;;;;2.73;1.20;;;;;;;;;;5055949;28;20202;-66
2022/07/15 10:29:32;;;;;;;2.40;1.47;;;;;;;;;;5056059;28;20170;-66
2022/07/15 10:31:59;;;;;;;4.23;1.43;;;;;;;;;;5055962;28;20226;-66
2022/07/15 10:34:38;;;;;;;2.40;1.30;;;;;;;;;;5037874;28;20609;-66
2022/07/15 10:37:07;;;;;;;2.73;1.17;;;;;;;;;;5037872;28;20186;-66
2022/07/15 10:39:52;;;;;;;3.43;1.30;;;;;;;;;;5055860;28;20182;-66
2022/07/15 10:42:18;;;;;;;2.70;1.20;;;;;;;;;;5037921;28;20199;-66
2022/07/15 10:45:02;;;;;;;1.80;1.37;;;;;;;;;;5055965;28;20181;-66
2022/07/15 10:47:29;;;;;;;2.27;1.23;;;;;;;;;;5038024;28;20171;-66
2022/07/15 10:49:55;;;;;;;1.57;1.20;;;;;;;;;;5037962;28;20186;-66
2022/07/15 10:52:29;;;;;;;2.17;1.27;;;;;;;;;;5055408;28;20218;-66
2022/07/15 10:54:55;;;;;;;4.37;1.30;;;;;;;;;;5055587;28;20174;-66
2022/07/15 10:57:41;;;;;;;2.57;1.30;;;;;;;;;;5055795;28;20698;-66
2022/07/15 11:00:16;;;;;;;2.77;1.20;;;;;;;;;;5055496;28;20183;-66
2022/07/15 11:03:01;;;;;;;2.07;1.37;;;;;;;;;;5055419;28;20198;-65
2022/07/15 11:05:27;;;;;;;4.57;1.50;;;;;;;;;;5055809;28;20281;-66
2022/07/15 11:07:53;;;;;;;4.40;1.20;;;;;;;;;;5054093;28;20217;-66
2022/07/15 11:10:20;;;;;;;2.13;1.30;;;;;;;;;;5055185;28;20170;-66
2022/07/15 11:12:49;;;;;;;2.83;1.20;;;;;;;;;;5055087;28;20565;-67
2022/07/15 11:15:18;;;;;;;2.57;1.37;;;;;;;;;;5055083;28;20190;-66
2022/07/15 11:17:46;;;;;;;2.70;1.10;;;;;;;;;;5054915;28;20186;-66
2022/07/15 11:20:17;;;;;;;2.53;1.43;;;;;;;;;;5055230;28;20179;-67
2022/07/15 11:22:48;;;;;;;2.77;1.20;;;;;;;;;;5055079;28;20247;-66
2022/07/15 11:25:18;;;;;;;1.67;1.07;;;;;;;;;;5055192;28;20225;-66
2022/07/15 11:27:55;;;;;;;1.10;1.00;;;;;;;;;;5054927;28;20186;-66
2022/07/15 11:30:20;;;;;;;1.47;1.20;;;;;;;;;;5055266;28;20248;-66
2022/07/15 11:32:54;;;;;;;4.43;1.47;;;;;;;;;;5036990;28;20670;-66
2022/07/15 11:35:20;;;;;;;2.17;1.10;;;;;;;;;;5055187;28;20163;-66
2022/07/15 11:37:46;;;;;;;1.93;1.20;;;;;;;;;;5054859;28;20647;-66
2022/07/15 11:45:46;;;;;;;2.30;1.10;;;;;;;;;;5054951;28;20247;-66
2022/07/15 11:48:12;;;;;;;2.40;1.50;;;;;;;;;;5054689;28;20573;-67
2022/07/15 11:50:48;;;;;;;1.43;1.10;;;;;;;;;;5036715;28;20600;-66
2022/07/15 11:53:15;;;;;;;2.20;1.00;;;;;;;;;;5054426;28;20201;-66
2022/07/15 11:55:50;;;;;;;3.77;1.20;;;;;;;;;;5036613;28;20193;-66
2022/07/15 11:58:16;;;;;;;0.90;0.90;;;;;;;;;;5054389;28;20182;-66
2022/07/15 12:00:49;;;;;;;2.23;1.50;;;;;;;;;;5054365;28;20269;-66
2022/07/15 12:03:15;;;;;;;2.03;1.30;;;;;;;;;;5036401;28;20191;-66
2022/07/15 12:05:41;;;;;;;2.20;1.30;;;;;;;;;;5036192;28;20210;-67
2022/07/15 12:08:07;;;;;;;1.17;1.00;;;;;;;;;;5054669;28;20245;-68
2022/07/15 12:10:34;;;;;;;2.03;1.20;;;;;;;;;;5054125;28;20181;-68
2022/07/15 12:13:01;;;;;;;1.30;1.20;;;;;;;;;;5036195;28;20202;-67
2022/07/15 12:15:28;;;;;;;0.97;0.90;;;;;;;;;;5054140;28;20179;-68
2022/07/15 12:17:55;;;;;;;1.10;0.90;;;;;;;;;;5054279;28;20182;-68
2022/07/15 12:20:21;;;;;;;1.53;1.33;;;;;;;;;;5053635;28;20206;-68
2022/07/15 12:23:05;;;;;;;1.60;1.00;;;;;;;;;;5053872;28;20277;-67
2022/07/15 12:25:32;;;;;;;2.00;1.33;;;;;;;;;;5053760;28;20210;-67
2022/07/15 12:27:58;;;;;;;2.03;1.00;;;;;;;;;;5053893;28;20182;-68
2022/07/15 12:30:34;;;;;;;0.97;0.90;;;;;;;;;;5035901;28;20179;-68
2022/07/15 12:33:16;;;;;;;3.43;1.43;;;;;;;;;;5035871;28;20194;-68
2022/07/15 12:35:43;;;;;;;3.20;1.13;;;;;;;;;;5035871;28;20247;-67
2022/07/15 12:38:09;;;;;;;1.33;1.03;;;;;;;;;;5035772;28;20608;-67
2022/07/15 12:40:35;;;;;;;2.27;1.50;;;;;;;;;;5053874;28;20179;-68
2022/07/15 12:43:01;;;;;;;1.70;1.23;;;;;;;;;;5053546;28;20202;-68
2022/07/15 12:45:29;;;;;;;3.17;1.10;;;;;;;;;;5053424;28;20580;-67
2022/07/15 12:48:01;;;;;;;1.03;1.00;;;;;;;;;;5035683;28;20669;-67
2022/07/15 12:50:27;;;;;;;1.57;1.20;;;;;;;;;;5053504;28;20650;-67
2022/07/15 12:52:55;;;;;;;1.70;1.03;;;;;;;;;;5035681;28;20588;-68
2022/07/15 12:55:26;;;;;;;1.33;1.10;;;;;;;;;;5035525;28;20244;-68
2022/07/15 12:57:52;;;;;;;3.00;1.20;;;;;;;;;;5053321;28;20179;-68
2022/07/15 13:00:20;;;;;;;1.10;1.00;;;;;;;;;;5053312;28;20182;-67
2022/07/15 13:03:03;;;;;;;2.17;1.27;;;;;;;;;;5053178;28;20615;-67
2022/07/15 13:05:39;;;;;;;1.53;1.30;;;;;;;;;;5035281;28;20198;-67
2022/07/15 13:08:09;;;;;;;2.53;1.30;;;;;;;;;;5053741;28;20164;-67
2022/07/15 13:10:36;;;;;;;2.03;1.20;;;;;;;;;;5035243;28;20209;-67
2022/07/15 13:13:03;;;;;;;2.10;1.30;;;;;;;;;;5035110;28;20691;-67
2022/07/15 13:15:29;;;;;;;2.57;1.50;;;;;;;;;;5035214;28;20272;-67
2022/07/15 13:17:55;;;;;;;1.20;1.10;;;;;;;;;;5035166;28;20221;-68
2022/07/15 13:20:21;;;;;;;1.47;1.37;;;;;;;;;;5053043;28;20179;-68
2022/07/15 13:22:47;;;;;;;1.47;1.23;;;;;;;;;;5052889;28;20195;-67
2022/07/15 13:25:13;;;;;;;2.77;1.10;;;;;;;;;;5052880;28;20209;-67
2022/07/15 13:27:39;;;;;;;1.73;1.30;;;;;;;;;;5053290;28;20635;-68
2022/07/15 13:30:06;;;;;;;2.53;1.40;;;;;;;;;;5052335;28;20175;-67
2022/07/15 13:32:32;;;;;;;1.70;1.00;;;;;;;;;;5052734;28;20240;-67
2022/07/15 13:34:58;;;;;;;5.70;1.40;;;;;;;;;;5052877;28;20568;-67
2022/07/15 13:37:24;;;;;;;1.43;1.20;;;;;;;;;;5052990;28;20225;-67
2022/07/15 13:39:50;;;;;;;2.10;1.17;;;;;;;;;;5052743;28;20662;-67
2022/07/15 13:42:17;;;;;;;4.30;1.60;;;;;;;;;;5052548;28;20206;-67
2022/07/15 13:44:43;;;;;;;4.23;1.57;;;;;;;;;;5034872;28;20190;-68
2022/07/15 13:47:09;;;;;;;3.07;1.30;;;;;;;;;;5034966;28;20249;-67
2022/07/15 13:52:20;;;;;;;1.53;1.20;;;;;;;;;;5052577;28;20225;-67
2022/07/15 13:54:46;;;;;;;1.63;1.10;;;;;;;;;;5034851;28;20170;-67
2022/07/15 13:57:12;;;;;;;3.03;1.50;;;;;;;;;;5034881;28;20197;-68
2022/07/15 13:59:38;;;;;;;1.80;1.30;;;;;;;;;;5053005;28;20553;-67
2022/07/15 14:02:04;;;;;;;3.47;1.20;;;;;;;;;;5052550;28;20190;-67
2022/07/15 14:04:31;;;;;;;3.03;1.10;;;;;;;;;;5052804;28;20181;-67
2022/07/15 14:06:57;;;;;;;3.63;1.40;;;;;;;;;;5034609;28;20210;-67
2022/07/15 14:09:23;;;;;;;1.50;1.10;;;;;;;;;;5052553;28;20232;-67
2022/07/15 14:11:49;;;;;;;2.53;1.10;;;;;;;;;;5034628;28;20624;-67
2022/07/15 14:14:15;;;;;;;1.43;1.27;;;;;;;;;;5052387;28;20174;-67
2022/07/15 14:16:41;;;;;;;2.03;1.30;;;;;;;;;;5052372;28;20190;-68
2022/07/15 14:19:07;;;;;;;2.60;1.93;;;;;;;;;;5035168;28;20210;-67
2022/07/15 14:21:34;;;;;;;4.67;1.30;;;;;;;;;;5052636;28;20237;-67
2022/07/15 14:24:00;;;;;;;3.40;1.43;;;;;;;;;;5052591;28;20183;-67
2022/07/15 14:26:26;;;;;;;2.30;1.40;;;;;;;;;;5053817;28;20256;-67
2022/07/15 14:28:52;;;;;;;2.97;1.37;;;;;;;;;;5054459;28;20178;-67
2022/07/15 14:31:18;;;;;;;5.17;1.50;;;;;;;;;;5035386;28;20199;-68
2022/07/15 14:33:44;;;;;;;1.17;1.07;;;;;;;;;;5054484;28;20182;-67
2022/07/15 14:36:11;;;;;;;2.27;1.30;;;;;;;;;;5054262;28;20178;-67
2022/07/15 14:38:37;;;;;;;1.90;1.50;;;;;;;;;;5053674;28;20179;-67
2022/07/15 14:41:03;;;;;;;2.90;1.20;;;;;;;;;;5053015;28;20174;-68
2022/07/15 14:43:29;;;;;;;3.47;1.30;;;;;;;;;;5038424;28;20190;-68
2022/07/15 14:45:55;;;;;;;4.13;1.30;;;;;;;;;;5056097;28;20299;-68
2022/07/15 14:48:21;;;;;;;2.57;1.23;;;;;;;;;;5055850;28;20183;-68
2022/07/15 14:50:47;;;;;;;2.50;1.30;;;;;;;;;;5055851;28;20170;-67
2022/07/15 14:53:13;;;;;;;2.73;1.23;;;;;;;;;;5037758;28;20650;-68
2022/07/15 14:55:39;;;;;;;1.87;1.33;;;;;;;;;;5055781;28;20646;-68
2022/07/15 14:58:05;;;;;;;3.57;1.40;;;;;;;;;;5037720;28;20187;-67
2022/07/15 15:00:31;;;;;;;2.30;1.13;;;;;;;;;;5037719;28;20281;-68